Time;durP1;ratioP1;P1;durP2;ratioP2;P2;SDS_P1;SDS_P2;PMS_P1;PMS_P2;Temp;Humidity;BMP_temperature;BMP_pressure;BME280_temperature;BME280_humidity;BME280_pressure;Samples;Min_cycle;Max_cycle;Signal;HPM_P1;HPM_P2
2022/07/21 00:01:35;;;;;;;1999.90;999.90;;;19.20;99.90;;;;;;5092991;28;20043;-76
2022/07/21 00:04:00;;;;;;;1999.90;999.90;;;19.20;99.90;;;;;;5109484;28;20070;-76
2022/07/21 00:06:26;;;;;;;1999.90;999.90;;;19.20;99.90;;;;;;5115555;27;20557;-76
2022/07/21 00:08:52;;;;;;;1999.90;999.90;;;19.20;99.90;;;;;;5119868;27;20043;-76
2022/07/21 00:11:18;;;;;;;1999.90;999.90;;;19.20;99.90;;;;;;5092726;28;20034;-76
2022/07/21 00:13:44;;;;;;;1999.90;999.90;;;19.20;99.90;;;;;;5091463;28;20067;-76
2022/07/21 00:16:10;;;;;;;1999.90;999.90;;;19.20;99.90;;;;;;5090780;28;20047;-76
2022/07/21 00:18:35;;;;;;;1999.90;999.90;;;19.20;99.90;;;;;;5110775;27;20046;-76
2022/07/21 00:21:02;;;;;;;1999.90;999.90;;;19.20;99.90;;;;;;5109346;28;20036;-76
2022/07/21 00:23:29;;;;;;;1999.90;999.90;;;19.20;99.90;;;;;;5109332;28;20043;-76
2022/07/21 00:25:54;;;;;;;1999.90;999.90;;;19.20;99.90;;;;;;5105522;28;20039;-76
2022/07/21 00:28:20;;;;;;;1999.90;999.90;;;19.10;99.90;;;;;;5110329;27;20054;-76
2022/07/21 00:30:46;;;;;;;1999.90;999.90;;;19.10;99.90;;;;;;5091994;28;20038;-76
2022/07/21 00:33:13;;;;;;;1999.90;999.90;;;19.10;99.90;;;;;;5090476;28;20035;-76
2022/07/21 00:35:39;;;;;;;1999.90;999.90;;;19.10;99.90;;;;;;5091205;28;20597;-77
2022/07/21 00:38:04;;;;;;;1999.90;999.90;;;19.10;99.90;;;;;;5091197;28;20035;-76
2022/07/21 00:40:31;;;;;;;1999.90;999.90;;;19.10;99.90;;;;;;5101225;28;20052;-77
2022/07/21 00:42:57;;;;;;;1999.90;999.90;;;19.10;99.90;;;;;;5092049;28;20277;-76
2022/07/21 00:45:23;;;;;;;1999.90;999.90;;;19.10;99.90;;;;;;5108968;28;20035;-77
2022/07/21 00:47:49;;;;;;;1999.90;999.90;;;19.10;99.90;;;;;;5100943;28;20034;-78
2022/07/21 00:50:18;;;;;;;1999.90;999.90;;;19.10;99.90;;;;;;5107942;28;20031;-78
2022/07/21 00:52:44;;;;;;;1999.90;999.90;;;19.00;99.90;;;;;;5111342;28;20116;-78
2022/07/21 00:55:13;;;;;;;1999.90;999.90;;;19.00;99.90;;;;;;5106883;28;20126;-79
2022/07/21 00:57:39;;;;;;;1999.90;999.90;;;19.00;99.90;;;;;;5108306;28;20414;-79
2022/07/21 01:00:08;;;;;;;1999.90;999.90;;;18.90;99.90;;;;;;5109869;28;20040;-79
2022/07/21 01:02:36;;;;;;;1999.90;999.90;;;18.90;99.90;;;;;;5088708;28;20511;-79
2022/07/21 01:05:04;;;;;;;1999.90;999.90;;;18.90;99.90;;;;;;5088341;28;20043;-79
2022/07/21 01:07:30;;;;;;;1999.90;999.90;;;18.90;99.90;;;;;;5108447;28;20112;-79
2022/07/21 01:09:56;;;;;;;1999.90;999.90;;;18.90;99.90;;;;;;5092084;28;20077;-80
2022/07/21 01:12:22;;;;;;;1999.90;999.90;;;18.90;99.90;;;;;;5102046;27;20043;-80
2022/07/21 01:14:48;;;;;;;1999.90;999.90;;;18.80;99.90;;;;;;5095546;27;20043;-80
2022/07/21 01:17:14;;;;;;;1999.90;999.90;;;18.90;99.90;;;;;;5097402;28;20040;-80
2022/07/21 01:19:41;;;;;;;1999.90;999.90;;;18.80;99.90;;;;;;5103819;28;20422;-81
2022/07/21 01:22:07;;;;;;;1999.90;999.90;;;18.80;99.90;;;;;;5104045;28;20050;-81
2022/07/21 01:24:33;;;;;;;1999.90;999.90;;;18.80;99.90;;;;;;5106557;28;20046;-81
2022/07/21 01:26:59;;;;;;;1999.90;999.90;;;18.70;99.90;;;;;;5105936;28;20414;-81
2022/07/21 01:29:24;;;;;;;1999.90;999.90;;;18.70;99.90;;;;;;5113081;27;20040;-80
2022/07/21 01:31:51;;;;;;;1999.90;999.90;;;18.60;99.90;;;;;;5109890;28;20023;-80
2022/07/21 01:34:20;;;;;;;1999.90;999.90;;;18.70;99.90;;;;;;5107751;28;20043;-80
2022/07/21 01:36:46;;;;;;;1999.90;999.90;;;18.60;99.90;;;;;;5104227;28;20096;-80
2022/07/21 01:41:57;;;;;;;1999.90;999.90;;;18.60;99.90;;;;;;5105994;27;20108;-79
2022/07/21 01:44:23;;;;;;;1999.90;999.90;;;18.60;99.90;;;;;;5111869;27;20035;-80
2022/07/21 01:46:51;;;;;;;1999.90;999.90;;;18.60;99.90;;;;;;5114664;27;20440;-79
2022/07/21 01:49:19;;;;;;;1999.90;999.90;;;18.50;99.90;;;;;;5078097;28;20071;-78
2022/07/21 01:51:45;;;;;;;1999.90;999.90;;;18.50;99.90;;;;;;5104915;27;20035;-79
2022/07/21 01:54:12;;;;;;;1999.90;999.90;;;18.50;99.90;;;;;;5091760;27;20817;-78
2022/07/21 01:56:38;;;;;;;1999.90;999.90;;;18.50;99.90;;;;;;5100950;28;20070;-78
2022/07/21 01:59:05;;;;;;;1999.90;999.90;;;18.50;99.90;;;;;;5086887;27;20131;-78
2022/07/21 02:01:32;;;;;;;1999.90;999.90;;;18.50;99.90;;;;;;5108085;27;20085;-80
2022/07/21 02:04:00;;;;;;;1999.90;999.90;;;18.50;99.90;;;;;;5104408;28;20055;-81
2022/07/21 02:06:27;;;;;;;1999.90;999.90;;;18.50;99.90;;;;;;5101765;27;20042;-81
2022/07/21 02:08:53;;;;;;;1999.90;999.90;;;18.50;99.90;;;;;;5110228;27;20036;-80
2022/07/21 02:11:19;;;;;;;1999.90;999.90;;;18.40;99.90;;;;;;5084784;27;20498;-80
2022/07/21 02:13:46;;;;;;;1999.90;999.90;;;18.50;99.90;;;;;;5108032;27;20051;-80
2022/07/21 02:16:12;;;;;;;1999.90;999.90;;;18.40;99.90;;;;;;5098688;27;20054;-79
2022/07/21 02:18:38;;;;;;;1999.90;999.90;;;18.40;99.90;;;;;;5104628;28;20044;-79
2022/07/21 02:21:05;;;;;;;1999.90;999.90;;;18.40;99.90;;;;;;5088506;27;20042;-79
2022/07/21 02:23:31;;;;;;;1999.90;999.90;;;18.40;99.90;;;;;;5079411;28;20043;-79
2022/07/21 02:25:58;;;;;;;1999.90;999.90;;;18.30;99.90;;;;;;5100871;27;20044;-79
2022/07/21 02:28:24;;;;;;;1999.90;999.90;;;18.30;99.90;;;;;;5111160;27;20521;-79
2022/07/21 02:30:50;;;;;;;1999.90;999.90;;;18.30;99.90;;;;;;5092338;27;20039;-79
2022/07/21 02:33:17;;;;;;;1999.90;999.90;;;18.30;99.90;;;;;;5104416;28;20130;-79
2022/07/21 02:35:43;;;;;;;1999.90;999.90;;;18.30;99.90;;;;;;5088904;28;20426;-79
2022/07/21 02:38:10;;;;;;;1999.90;999.90;;;18.30;99.90;;;;;;5109591;28;20051;-78
2022/07/21 02:40:35;;;;;;;1999.90;999.90;;;18.30;99.90;;;;;;5103080;28;20045;-79
2022/07/21 02:43:02;;;;;;;1999.90;999.90;;;18.30;99.90;;;;;;5109631;27;20084;-79
2022/07/21 02:45:27;;;;;;;1999.90;999.90;;;18.30;99.90;;;;;;5093609;28;20146;-79
2022/07/21 02:47:55;;;;;;;1999.90;999.90;;;18.30;99.90;;;;;;5104827;27;20070;-78
2022/07/21 02:50:23;;;;;;;1999.90;999.90;;;18.30;99.90;;;;;;5092065;28;20541;-79
2022/07/21 02:52:49;;;;;;;1999.90;999.90;;;18.30;99.90;;;;;;5110864;28;20564;-78
2022/07/21 02:55:15;;;;;;;1999.90;999.90;;;18.30;99.90;;;;;;5107773;28;20141;-78
2022/07/21 02:57:41;;;;;;;1999.90;999.90;;;18.30;99.90;;;;;;5092145;28;20035;-78
2022/07/21 03:00:09;;;;;;;1999.90;999.90;;;18.30;99.90;;;;;;5110700;28;20042;-78
2022/07/21 03:02:35;;;;;;;1999.90;999.90;;;18.30;99.90;;;;;;5110576;28;20053;-78
2022/07/21 03:05:02;;;;;;;1999.90;999.90;;;18.40;99.90;;;;;;5107660;27;20039;-79
2022/07/21 03:07:27;;;;;;;1999.90;999.90;;;18.40;99.90;;;;;;5108573;28;20045;-79
2022/07/21 03:09:53;;;;;;;1999.90;999.90;;;18.40;99.90;;;;;;5110531;28;20047;-79
2022/07/21 03:12:19;;;;;;;1999.90;999.90;;;18.40;99.90;;;;;;5087911;28;20118;-78
2022/07/21 03:14:44;;;;;;;1999.90;999.90;;;18.40;99.90;;;;;;5093566;28;20039;-80
2022/07/21 03:17:10;;;;;;;1999.90;999.90;;;18.40;99.90;;;;;;5111332;27;20549;-79
2022/07/21 03:19:36;;;;;;;1999.90;999.90;;;18.40;99.90;;;;;;5107440;28;20050;-79
2022/07/21 03:22:02;;;;;;;1999.90;999.90;;;18.40;99.90;;;;;;5110574;27;20089;-79
2022/07/21 03:24:29;;;;;;;1999.90;999.90;;;18.40;99.90;;;;;;5114009;27;20066;-79
2022/07/21 03:26:55;;;;;;;1999.90;999.90;;;18.40;99.90;;;;;;5110213;27;20159;-79
2022/07/21 03:29:21;;;;;;;1999.90;999.90;;;18.40;99.90;;;;;;5111271;27;20045;-79
2022/07/21 03:31:46;;;;;;;1999.90;999.90;;;18.40;99.90;;;;;;5114374;27;20495;-80
2022/07/21 03:34:12;;;;;;;1999.90;999.90;;;18.40;99.90;;;;;;5096323;27;20046;-80
2022/07/21 03:36:38;;;;;;;1999.90;999.90;;;18.40;99.90;;;;;;5093382;27;20544;-79
2022/07/21 03:39:03;;;;;;;1999.90;999.90;;;18.50;99.90;;;;;;5114103;27;20104;-78
2022/07/21 03:41:29;;;;;;;1999.90;999.90;;;18.40;99.90;;;;;;5104079;27;20074;-78
2022/07/21 03:43:55;;;;;;;1999.90;999.90;;;18.50;99.90;;;;;;5113514;27;20285;-78
2022/07/21 03:46:20;;;;;;;1999.90;999.90;;;18.50;99.90;;;;;;5094458;27;20042;-78
2022/07/21 03:48:46;;;;;;;1999.90;999.90;;;18.50;99.90;;;;;;5096674;27;20089;-78
2022/07/21 03:51:12;;;;;;;1999.90;999.90;;;18.50;99.90;;;;;;5096061;27;20573;-78
2022/07/21 03:53:37;;;;;;;1999.90;999.90;;;18.50;99.90;;;;;;5113822;27;20126;-78
2022/07/21 03:56:03;;;;;;;1999.90;999.90;;;18.40;99.90;;;;;;5095467;27;20042;-78
2022/07/21 03:58:29;;;;;;;1999.90;999.90;;;18.50;99.90;;;;;;5113741;27;20578;-78
2022/07/21 04:00:55;;;;;;;1999.90;999.90;;;18.50;99.90;;;;;;5095327;27;20453;-78
2022/07/21 04:03:20;;;;;;;1999.90;999.90;;;18.50;99.90;;;;;;5095516;27;20407;-78
2022/07/21 04:05:46;;;;;;;1999.90;999.90;;;18.50;99.90;;;;;;5095467;27;20039;-78
2022/07/21 04:08:13;;;;;;;1999.90;999.90;;;18.40;99.90;;;;;;5096357;27;20467;-78
2022/07/21 04:10:41;;;;;;;1999.90;999.90;;;18.50;99.90;;;;;;5109657;27;20077;-78
2022/07/21 04:13:09;;;;;;;1999.90;999.90;;;18.40;99.90;;;;;;5112197;27;20522;-79
2022/07/21 04:15:36;;;;;;;1999.90;999.90;;;18.40;99.90;;;;;;5109922;27;20039;-79
2022/07/21 04:18:02;;;;;;;1999.90;999.90;;;18.50;99.90;;;;;;5109336;27;20047;-80
2022/07/21 04:20:28;;;;;;;1999.90;999.90;;;18.50;99.90;;;;;;5105368;27;20035;-79
2022/07/21 04:22:53;;;;;;;1999.90;999.90;;;18.50;99.90;;;;;;5112145;27;20042;-80
2022/07/21 04:25:19;;;;;;;1999.90;999.90;;;18.50;99.90;;;;;;5111374;27;20053;-79
2022/07/21 04:27:47;;;;;;;1999.90;999.90;;;18.50;99.90;;;;;;5112745;27;20441;-79
2022/07/21 04:30:18;;;;;;;1999.90;999.90;;;18.60;99.90;;;;;;5106553;28;20070;-79
2022/07/21 04:32:44;;;;;;;1999.90;999.90;;;18.60;99.90;;;;;;5091544;27;20039;-78
2022/07/21 04:35:10;;;;;;;1999.90;999.90;;;18.60;99.90;;;;;;5113036;27;20046;-78
2022/07/21 04:37:36;;;;;;;1999.90;999.90;;;18.60;99.90;;;;;;5098153;27;20126;-79
2022/07/21 04:40:04;;;;;;;1999.90;999.90;;;18.60;99.90;;;;;;5112018;27;20051;-79
2022/07/21 04:42:30;;;;;;;1999.90;999.90;;;18.60;99.90;;;;;;5093199;27;20050;-79
2022/07/21 04:44:55;;;;;;;1999.90;999.90;;;18.60;99.90;;;;;;5112954;27;20043;-79
2022/07/21 04:47:21;;;;;;;1999.90;999.90;;;18.60;99.90;;;;;;5112342;27;20031;-79
2022/07/21 04:49:47;;;;;;;1999.90;999.90;;;18.60;99.90;;;;;;5097103;27;20486;-79
2022/07/21 04:52:12;;;;;;;1999.90;999.90;;;18.70;99.90;;;;;;5114340;27;20415;-79
2022/07/21 04:54:38;;;;;;;1999.90;999.90;;;18.70;99.90;;;;;;5109850;27;20049;-79
2022/07/21 04:57:05;;;;;;;1999.90;999.90;;;18.70;99.90;;;;;;5088797;28;20321;-79
2022/07/21 04:59:31;;;;;;;1999.90;999.90;;;18.70;99.90;;;;;;5094964;27;20035;-80
2022/07/21 05:01:58;;;;;;;1999.90;999.90;;;18.60;99.90;;;;;;5095386;27;20043;-80
2022/07/21 05:04:24;;;;;;;1999.90;999.90;;;18.60;99.90;;;;;;5095231;27;20081;-79
2022/07/21 05:06:49;;;;;;;1999.90;999.90;;;18.60;99.90;;;;;;5094146;27;20829;-80
2022/07/21 05:09:15;;;;;;;1999.90;999.90;;;18.60;99.90;;;;;;5110896;27;20039;-79
2022/07/21 05:11:40;;;;;;;1999.90;999.90;;;18.60;99.90;;;;;;5094502;27;20035;-80
2022/07/21 05:14:06;;;;;;;1999.90;999.90;;;18.60;99.90;;;;;;5112347;27;20487;-80
2022/07/21 05:16:31;;;;;;;1999.90;999.90;;;18.60;99.90;;;;;;5109988;27;20046;-79
2022/07/21 05:18:57;;;;;;;1999.90;999.90;;;18.60;99.90;;;;;;5091642;27;20043;-79
2022/07/21 05:21:23;;;;;;;1999.90;999.90;;;18.60;99.90;;;;;;5104682;27;20088;-80
2022/07/21 05:23:48;;;;;;;1999.90;999.90;;;18.60;99.90;;;;;;5111529;27;20051;-80
2022/07/21 05:26:14;;;;;;;1999.90;999.90;;;18.60;99.90;;;;;;5094261;27;20039;-79
2022/07/21 05:28:40;;;;;;;1999.90;999.90;;;18.60;99.90;;;;;;5093479;27;20031;-79
2022/07/21 05:31:06;;;;;;;1999.90;999.90;;;18.60;99.90;;;;;;5094260;27;20042;-80
2022/07/21 05:33:32;;;;;;;1999.90;999.90;;;18.60;99.90;;;;;;5093845;27;20046;-80
2022/07/21 05:35:58;;;;;;;1999.90;999.90;;;18.60;99.90;;;;;;5095088;27;20043;-79
2022/07/21 05:38:23;;;;;;;1999.90;999.90;;;18.60;99.90;;;;;;5111492;27;20045;-80
2022/07/21 05:40:49;;;;;;;1999.90;999.90;;;18.60;99.90;;;;;;5109148;27;20054;-80
2022/07/21 05:43:15;;;;;;;1999.90;999.90;;;18.60;99.90;;;;;;5093729;27;20039;-80
2022/07/21 05:45:40;;;;;;;1999.90;999.90;;;18.50;99.90;;;;;;5093537;27;20039;-82
2022/07/21 05:48:06;;;;;;;1999.90;999.90;;;18.40;99.90;;;;;;5093892;27;20070;-81
2022/07/21 05:50:31;;;;;;;1999.90;999.90;;;18.40;99.90;;;;;;5092850;27;20188;-79
2022/07/21 05:52:57;;;;;;;1999.90;999.90;;;18.40;99.90;;;;;;5111260;27;20543;-78
2022/07/21 05:55:23;;;;;;;1999.90;999.90;;;18.40;99.90;;;;;;5091413;27;20038;-78
2022/07/21 05:57:48;;;;;;;1999.90;999.90;;;18.50;99.90;;;;;;5114368;27;20486;-78
2022/07/21 06:00:15;;;;;;;1999.90;999.90;;;18.50;99.90;;;;;;5111393;27;20035;-78
2022/07/21 06:02:41;;;;;;;1999.90;999.90;;;18.60;99.90;;;;;;5091046;27;20087;-77
2022/07/21 06:05:08;;;;;;;1999.90;999.90;;;18.70;99.90;;;;;;5094219;27;20039;-77
2022/07/21 06:07:34;;;;;;;1999.90;999.90;;;18.70;99.90;;;;;;5106194;27;20111;-77
2022/07/21 06:10:00;;;;;;;1999.90;999.90;;;18.80;99.90;;;;;;5105599;27;20501;-78
2022/07/21 06:12:26;;;;;;;1999.90;999.90;;;18.90;99.90;;;;;;5111640;27;20422;-78
2022/07/21 06:14:52;;;;;;;1999.90;999.90;;;18.90;99.90;;;;;;5103985;27;20455;-77
2022/07/21 06:17:18;;;;;;;1999.90;999.90;;;18.90;99.90;;;;;;5114809;27;20554;-77
2022/07/21 06:19:44;;;;;;;1999.90;999.90;;;19.00;99.90;;;;;;5100993;27;20510;-79
2022/07/21 06:22:09;;;;;;;1999.90;999.90;;;19.00;99.90;;;;;;5117291;27;20035;-78
2022/07/21 06:24:35;;;;;;;1999.90;999.90;;;19.00;99.90;;;;;;5127161;27;20043;-79
2022/07/21 06:27:01;;;;;;;1999.90;999.90;;;19.00;99.90;;;;;;5105748;27;20050;-79
2022/07/21 06:29:27;;;;;;;1999.90;999.90;;;19.00;99.90;;;;;;5111017;27;20440;-79
2022/07/21 06:31:52;;;;;;;1999.90;999.90;;;19.00;99.90;;;;;;5094073;27;20046;-79
2022/07/21 06:34:18;;;;;;;1999.90;999.90;;;19.00;99.90;;;;;;5125596;27;20426;-80
2022/07/21 06:36:44;;;;;;;1999.90;999.90;;;19.00;99.90;;;;;;5129481;27;20475;-79
2022/07/21 06:39:12;;;;;;;1999.90;999.90;;;19.00;99.90;;;;;;5092530;28;20047;-80
2022/07/21 06:41:38;;;;;;;1999.90;999.90;;;19.00;99.90;;;;;;5109149;28;20402;-79
2022/07/21 06:44:05;;;;;;;1999.90;999.90;;;19.00;99.90;;;;;;5107573;28;20047;-79
2022/07/21 06:46:34;;;;;;;1999.90;999.90;;;19.00;99.90;;;;;;5110903;28;20562;-80
2022/07/21 06:49:00;;;;;;;1999.90;999.90;;;19.10;99.90;;;;;;5093939;28;20122;-80
2022/07/21 06:51:26;;;;;;;1999.90;999.90;;;19.10;99.90;;;;;;5130379;27;20119;-79
2022/07/21 06:53:51;;;;;;;1999.90;999.90;;;19.10;99.90;;;;;;5125978;27;20510;-80
2022/07/21 06:56:18;;;;;;;1999.90;999.90;;;19.10;99.90;;;;;;5133602;27;20066;-80
2022/07/21 06:58:43;;;;;;;1999.90;999.90;;;19.20;99.90;;;;;;5115162;27;20039;-79
2022/07/21 07:01:09;;;;;;;1999.90;999.90;;;19.20;99.90;;;;;;5109069;27;20050;-80
2022/07/21 07:03:36;;;;;;;1999.90;999.90;;;19.40;99.90;;;;;;5133388;27;20031;-81
2022/07/21 07:06:02;;;;;;;1999.90;999.90;;;19.50;99.90;;;;;;5118124;27;20043;-80
2022/07/21 07:08:28;;;;;;;1999.90;999.90;;;19.70;99.90;;;;;;5125415;27;20036;-81
2022/07/21 07:10:54;;;;;;;1999.90;999.90;;;19.80;99.90;;;;;;5104185;27;20042;-81
2022/07/21 07:13:19;;;;;;;1999.90;999.90;;;19.80;99.90;;;;;;5099320;27;20380;-80
2022/07/21 07:15:45;;;;;;;1999.90;999.90;;;19.80;99.90;;;;;;5098760;27;20072;-79
2022/07/21 07:18:10;;;;;;;1999.90;999.90;;;19.70;99.90;;;;;;5116062;27;20065;-80
2022/07/21 07:20:36;;;;;;;1999.90;999.90;;;19.70;99.90;;;;;;5087498;27;20052;-79
2022/07/21 07:23:03;;;;;;;1999.90;999.90;;;19.70;99.90;;;;;;5132834;27;20039;-79
2022/07/21 07:25:28;;;;;;;1999.90;999.90;;;19.80;99.90;;;;;;5125001;27;20104;-79
2022/07/21 07:27:56;;;;;;;1999.90;999.90;;;19.90;99.90;;;;;;5131737;27;20043;-80
2022/07/21 07:30:22;;;;;;;1999.90;999.90;;;20.00;99.90;;;;;;5132885;27;20039;-80
2022/07/21 07:32:47;;;;;;;1999.90;999.90;;;20.00;99.90;;;;;;5113464;27;20498;-79
2022/07/21 07:35:13;;;;;;;1999.90;999.90;;;20.00;99.90;;;;;;5114406;27;20115;-80
2022/07/21 07:37:41;;;;;;;1999.90;999.90;;;20.10;99.90;;;;;;5126350;27;20492;-79
2022/07/21 07:40:09;;;;;;;1999.90;999.90;;;20.00;99.90;;;;;;5132412;27;20063;-80
2022/07/21 07:42:36;;;;;;;1999.90;999.90;;;20.00;99.90;;;;;;5145067;27;20433;-80
2022/07/21 07:45:03;;;;;;;1999.90;999.90;;;20.10;99.90;;;;;;5114973;27;20130;-80
2022/07/21 07:47:29;;;;;;;1999.90;999.90;;;20.10;99.90;;;;;;5114122;27;20085;-80
2022/07/21 07:49:55;;;;;;;1999.90;999.90;;;20.10;99.90;;;;;;5132553;27;20503;-81
2022/07/21 07:52:21;;;;;;;1999.90;999.90;;;20.10;99.90;;;;;;5088801;27;20045;-81
2022/07/21 07:54:47;;;;;;;1999.90;999.90;;;20.10;99.90;;;;;;5128337;27;20086;-81
2022/07/21 07:57:12;;;;;;;1999.90;999.90;;;20.10;99.90;;;;;;5132617;27;20079;-81
2022/07/21 07:59:38;;;;;;;1999.90;999.90;;;20.00;99.90;;;;;;5132171;27;20053;-81
2022/07/21 08:02:03;;;;;;;1999.90;999.90;;;20.00;99.90;;;;;;5106072;27;20126;-81
2022/07/21 08:04:29;;;;;;;1999.90;999.90;;;20.00;99.90;;;;;;5132487;27;20042;-80
2022/07/21 08:06:55;;;;;;;1999.90;999.90;;;20.00;99.90;;;;;;5100339;27;20043;-81
2022/07/21 08:09:20;;;;;;;1999.90;999.90;;;20.00;99.90;;;;;;5079673;27;20074;-80
2022/07/21 08:11:47;;;;;;;1999.90;999.90;;;20.00;99.90;;;;;;5112058;27;20043;-80
2022/07/21 08:14:14;;;;;;;1999.90;999.90;;;20.00;99.90;;;;;;5132195;27;20437;-81
2022/07/21 08:16:39;;;;;;;1999.90;999.90;;;20.00;99.90;;;;;;5096953;27;20055;-81
2022/07/21 08:19:05;;;;;;;1999.90;999.90;;;20.00;99.90;;;;;;5111418;27;20096;-81
2022/07/21 08:21:32;;;;;;;1999.90;999.90;;;20.00;99.90;;;;;;5125414;27;20058;-81
2022/07/21 08:23:57;;;;;;;1999.90;999.90;;;20.10;99.90;;;;;;5093902;27;20470;-81
2022/07/21 08:26:24;;;;;;;1999.90;999.90;;;20.20;99.90;;;;;;5129336;27;21583;-81
2022/07/21 08:28:52;;;;;;;1999.90;999.90;;;20.30;99.90;;;;;;5123500;27;20039;-81
2022/07/21 08:31:17;;;;;;;1999.90;999.90;;;20.40;99.90;;;;;;5112494;27;20035;-81
2022/07/21 08:33:43;;;;;;;1999.90;999.90;;;20.40;99.90;;;;;;5127017;27;20489;-81
2022/07/21 08:36:09;;;;;;;1999.90;999.90;;;20.50;99.90;;;;;;5095769;27;20118;-81
2022/07/21 08:38:35;;;;;;;1999.90;999.90;;;20.60;99.90;;;;;;5116772;27;20499;-81
2022/07/21 08:41:01;;;;;;;1999.90;999.90;;;20.50;99.90;;;;;;5121940;27;20091;-81
2022/07/21 08:43:26;;;;;;;1999.90;999.90;;;20.60;99.90;;;;;;5111172;27;20039;-82
2022/07/21 08:45:53;;;;;;;1999.90;999.90;;;20.60;99.90;;;;;;5126179;27;20031;-81
2022/07/21 08:48:24;;;;;;;1999.90;999.90;;;20.70;99.90;;;;;;5122650;27;20156;-80
2022/07/21 08:50:50;;;;;;;1999.90;999.90;;;20.70;99.90;;;;;;5100607;27;20394;-82
2022/07/21 08:53:16;;;;;;;1999.90;999.90;;;20.70;99.90;;;;;;5126762;27;20050;-81
2022/07/21 08:55:42;;;;;;;1999.90;999.90;;;20.60;99.90;;;;;;5107967;27;20039;-80
2022/07/21 08:58:09;;;;;;;1999.90;999.90;;;20.60;99.90;;;;;;5122926;27;20035;-81
2022/07/21 09:00:36;;;;;;;1999.90;999.90;;;20.60;99.90;;;;;;5102753;27;20050;-81
2022/07/21 09:03:16;;;;;;;1999.90;999.90;;;20.70;99.90;;;;;;5116160;27;20402;-81
2022/07/21 09:05:57;;;;;;;1999.90;999.90;;;20.80;99.90;;;;;;5084309;27;20043;-81
2022/07/21 09:08:29;;;;;;;1999.90;999.90;;;20.80;99.90;;;;;;5112259;27;20043;-80
2022/07/21 09:11:08;;;;;;;1999.90;999.90;;;20.80;99.90;;;;;;5131336;27;20041;-81
2022/07/21 09:13:33;;;;;;;1999.90;999.90;;;20.80;99.90;;;;;;5109277;27;20043;-80
2022/07/21 09:15:59;;;;;;;1999.90;999.90;;;20.80;99.90;;;;;;5099316;27;20122;-81
2022/07/21 09:18:25;;;;;;;1999.90;999.90;;;20.80;99.90;;;;;;5128181;27;20043;-80
2022/07/21 09:20:53;;;;;;;1999.90;999.90;;;20.90;99.90;;;;;;5094753;27;20072;-80
2022/07/21 09:23:22;;;;;;;1999.90;999.90;;;21.10;99.90;;;;;;5129041;27;20051;-80
2022/07/21 09:25:58;;;;;;;1999.90;999.90;;;21.30;99.90;;;;;;5130473;27;20498;-78
2022/07/21 09:28:29;;;;;;;1999.90;999.90;;;21.50;99.90;;;;;;5104578;28;20032;-80
2022/07/21 09:31:02;;;;;;;1999.90;999.90;;;21.50;99.90;;;;;;5119085;27;20501;-79
2022/07/21 09:33:28;;;;;;;1999.90;999.90;;;21.50;99.90;;;;;;5103081;27;20118;-80
2022/07/21 09:35:53;;;;;;;1999.90;999.90;;;21.50;99.90;;;;;;5106550;27;20118;-79
2022/07/21 09:38:19;;;;;;;1999.90;999.90;;;21.40;99.90;;;;;;5126270;27;20582;-79
2022/07/21 09:40:48;;;;;;;1999.90;999.90;;;21.30;99.90;;;;;;5112971;27;20043;-79
2022/07/21 09:43:41;;;;;;;1999.90;999.90;;;21.30;99.90;;;;;;5130580;27;20558;-79
2022/07/21 09:46:16;;;;;;;1999.90;999.90;;;21.10;99.90;;;;;;5127808;27;20122;-79
2022/07/21 09:48:44;;;;;;;1999.90;999.90;;;21.10;99.90;;;;;;5097403;27;20047;-79
2022/07/21 09:51:19;;;;;;;1999.90;999.90;;;21.20;99.90;;;;;;5096531;28;20039;-80
2022/07/21 09:54:09;;;;;;;1999.90;999.90;;;21.10;99.90;;;;;;5105086;28;20042;-79
2022/07/21 09:56:40;;;;;;;1999.90;999.90;;;21.10;99.90;;;;;;5096675;28;20096;-79
2022/07/21 09:59:08;;;;;;;1999.90;999.90;;;21.00;99.90;;;;;;5091667;27;20052;-78
2022/07/21 10:01:35;;;;;;;1999.90;999.90;;;20.90;99.90;;;;;;5095104;27;20118;-79
2022/07/21 10:04:03;;;;;;;1999.90;999.90;;;20.90;99.90;;;;;;5085038;28;20411;-78
2022/07/21 10:06:31;;;;;;;1999.90;999.90;;;21.00;99.90;;;;;;5120472;27;20435;-79
2022/07/21 10:08:58;;;;;;;1999.90;999.90;;;21.00;99.90;;;;;;5116741;27;20054;-79
2022/07/21 10:11:26;;;;;;;1999.90;999.90;;;21.10;99.90;;;;;;5130679;27;20070;-78
2022/07/21 10:13:52;;;;;;;1999.90;999.90;;;21.20;99.90;;;;;;5098172;28;20047;-78
2022/07/21 10:16:18;;;;;;;1999.90;999.90;;;21.20;99.90;;;;;;5118136;27;20031;-79
2022/07/21 10:18:53;;;;;;;1999.90;999.90;;;21.40;99.90;;;;;;5111703;27;20038;-78
2022/07/21 10:21:46;;;;;;;1999.90;999.90;;;21.60;99.90;;;;;;5110593;27;20085;-78
2022/07/21 10:24:13;;;;;;;1999.90;999.90;;;21.70;99.90;;;;;;5129898;27;20053;-78
2022/07/21 10:27:09;;;;;;;1999.90;999.90;;;21.70;99.90;;;;;;5123104;27;20039;-79
2022/07/21 10:29:47;;;;;;;1999.90;999.90;;;21.70;99.90;;;;;;5107614;27;20043;-79
2022/07/21 10:32:15;;;;;;;1999.90;999.90;;;21.60;99.90;;;;;;5118400;27;20031;-79
2022/07/21 10:34:42;;;;;;;1999.90;999.90;;;21.60;99.90;;;;;;5110274;27;20462;-79
2022/07/21 10:37:08;;;;;;;1999.90;999.90;;;21.50;99.90;;;;;;5124262;27;20559;-79
2022/07/21 10:39:34;;;;;;;1999.90;999.90;;;21.50;99.90;;;;;;5093970;27;20055;-79
2022/07/21 10:42:14;;;;;;;1999.90;999.90;;;21.50;99.90;;;;;;5102441;28;20035;-79
2022/07/21 10:44:42;;;;;;;1999.90;999.90;;;21.60;99.90;;;;;;5128509;27;20031;-78
2022/07/21 10:47:19;;;;;;;1999.90;999.90;;;21.70;99.90;;;;;;5122288;27;20481;-78
2022/07/21 10:49:53;;;;;;;1999.90;999.90;;;21.90;99.90;;;;;;5104940;28;20038;-79
2022/07/21 10:52:38;;;;;;;1999.90;999.90;;;22.00;99.90;;;;;;5136830;27;20473;-78
2022/07/21 10:55:10;;;;;;;1999.90;999.90;;;22.10;99.90;;;;;;5097692;28;20047;-78
2022/07/21 10:57:47;;;;;;;1999.90;999.90;;;22.10;99.90;;;;;;5099671;28;20088;-78
2022/07/21 11:00:33;;;;;;;1999.90;999.90;;;22.10;99.90;;;;;;5120901;27;20077;-78
2022/07/21 11:03:00;;;;;;;1999.90;999.90;;;22.20;99.90;;;;;;5110866;27;20447;-78
2022/07/21 11:05:29;;;;;;;1999.90;999.90;;;22.30;99.90;;;;;;5099106;27;20047;-78
2022/07/21 11:08:18;;;;;;;1999.90;999.90;;;22.30;99.90;;;;;;5120788;27;20124;-78
2022/07/21 11:10:50;;;;;;;1999.90;999.90;;;22.40;99.90;;;;;;5125805;27;20783;-78
2022/07/21 11:13:17;;;;;;;1999.90;999.90;;;22.30;99.90;;;;;;5090013;28;20039;-77
2022/07/21 11:15:45;;;;;;;1999.90;999.90;;;22.20;99.90;;;;;;5082053;27;20067;-78
2022/07/21 11:18:11;;;;;;;1999.90;999.90;;;22.10;99.90;;;;;;5124217;27;20050;-78
2022/07/21 11:20:36;;;;;;;1999.90;999.90;;;22.10;99.90;;;;;;5103286;27;20039;-77
2022/07/21 11:23:05;;;;;;;1999.90;999.90;;;22.10;99.90;;;;;;5066921;28;20100;-78
2022/07/21 11:25:30;;;;;;;1999.90;999.90;;;22.20;99.90;;;;;;5118894;27;20058;-77
2022/07/21 11:27:56;;;;;;;1999.90;999.90;;;22.20;99.90;;;;;;5108298;28;20084;-77
2022/07/21 11:30:21;;;;;;;1999.90;999.90;;;22.10;99.90;;;;;;5126143;27;20168;-77
2022/07/21 11:32:48;;;;;;;1999.90;999.90;;;22.00;99.90;;;;;;5107186;27;20475;-77
2022/07/21 11:35:14;;;;;;;1999.90;999.90;;;22.00;99.90;;;;;;5103431;28;20216;-78
2022/07/21 11:37:42;;;;;;;1999.90;999.90;;;22.00;99.90;;;;;;5124661;27;20039;-78
2022/07/21 11:40:14;;;;;;;1999.90;999.90;;;22.10;99.90;;;;;;5111713;27;20419;-77
2022/07/21 11:42:41;;;;;;;1999.90;999.90;;;22.00;99.90;;;;;;5113683;27;20035;-78
2022/07/21 11:45:09;;;;;;;1999.90;999.90;;;22.10;99.90;;;;;;5132596;27;20133;-77
2022/07/21 11:47:34;;;;;;;1999.90;999.90;;;22.10;99.90;;;;;;5132306;27;20043;-77
2022/07/21 11:50:03;;;;;;;1999.90;999.90;;;22.20;99.90;;;;;;5104513;27;20442;-77
2022/07/21 11:52:31;;;;;;;1999.90;999.90;;;22.20;99.90;;;;;;5134774;27;20047;-77
2022/07/21 11:54:59;;;;;;;1999.90;999.90;;;22.30;99.90;;;;;;5119845;27;20556;-77
2022/07/21 11:57:26;;;;;;;1999.90;999.90;;;22.50;99.90;;;;;;5097111;27;20476;-77
2022/07/21 11:59:53;;;;;;;1999.90;999.90;;;22.60;99.90;;;;;;5096880;27;20039;-76
2022/07/21 12:02:24;;;;;;;1999.90;999.90;;;22.70;99.90;;;;;;5092925;28;20047;-76